sensor_id;sensor_type;location;lat;lon;timestamp;pressure;altitude;pressure_sealevel;temperature;humidity
12664;BME280;6396;58.490;15.528;2022-09-09T00:02:18;101198.69;;;12.92;100.00
12664;BME280;6396;58.490;15.528;2022-09-09T00:04:57;101117.19;;;12.34;100.00
12664;BME280;6396;58.490;15.528;2022-09-09T00:07:36;100835.97;;;10.90;100.00
12664;BME280;6396;58.490;15.528;2022-09-09T00:10:15;101144.94;;;12.53;100.00
12664;BME280;6396;58.490;15.528;2022-09-09T00:15:38;100690.09;;;10.07;100.00
12664;BME280;6396;58.490;15.528;2022-09-09T00:18:17;101249.78;;;12.65;100.00
12664;BME280;6396;58.490;15.528;2022-09-09T00:20:54;101264.81;;;13.33;100.00
12664;BME280;6396;58.490;15.528;2022-09-09T00:23:25;100821.63;;;10.27;100.00
12664;BME280;6396;58.490;15.528;2022-09-09T00:26:01;100898.16;;;11.04;100.00
12664;BME280;6396;58.490;15.528;2022-09-09T00:28:29;101350.16;;;13.81;100.00
12664;BME280;6396;58.490;15.528;2022-09-09T00:30:59;101008.53;;;12.05;100.00
12664;BME280;6396;58.490;15.528;2022-09-09T00:33:44;101260.75;;;13.51;100.00
12664;BME280;6396;58.490;15.528;2022-09-09T00:36:18;101015.50;;;12.07;100.00
12664;BME280;6396;58.490;15.528;2022-09-09T00:38:51;101189.69;;;12.99;100.00
12664;BME280;6396;58.490;15.528;2022-09-09T00:41:22;101179.91;;;13.02;100.00
12664;BME280;6396;58.490;15.528;2022-09-09T00:43:57;101114.53;;;12.34;100.00
12664;BME280;6396;58.490;15.528;2022-09-09T00:46:41;100978.78;;;11.59;100.00
12664;BME280;6396;58.490;15.528;2022-09-09T00:49:24;101177.25;;;12.67;100.00
12664;BME280;6396;58.490;15.528;2022-09-09T00:52:04;101264.25;;;13.20;100.00
12664;BME280;6396;58.490;15.528;2022-09-09T00:54:43;100937.22;;;11.28;100.00
12664;BME280;6396;58.490;15.528;2022-09-09T00:57:23;101258.09;;;13.20;100.00
12664;BME280;6396;58.490;15.528;2022-09-09T00:59:59;101304.88;;;13.55;100.00
12664;BME280;6396;58.490;15.528;2022-09-09T01:02:35;101053.66;;;11.99;100.00
12664;BME280;6396;58.490;15.528;2022-09-09T01:05:10;101289.06;;;13.52;100.00
12664;BME280;6396;58.490;15.528;2022-09-09T01:07:44;101284.47;;;13.57;100.00
12664;BME280;6396;58.490;15.528;2022-09-09T01:10:21;101141.94;;;12.68;100.00
12664;BME280;6396;58.490;15.528;2022-09-09T01:12:53;101140.13;;;12.69;100.00
12664;BME280;6396;58.490;15.528;2022-09-09T01:15:26;101135.09;;;12.58;100.00
12664;BME280;6396;58.490;15.528;2022-09-09T01:17:59;101213.16;;;13.14;100.00
12664;BME280;6396;58.490;15.528;2022-09-09T01:20:31;101281.59;;;13.66;100.00
12664;BME280;6396;58.490;15.528;2022-09-09T01:23:16;101286.06;;;13.64;100.00
12664;BME280;6396;58.490;15.528;2022-09-09T01:28:51;101272.25;;;13.51;100.00
12664;BME280;6396;58.490;15.528;2022-09-09T01:31:22;101276.69;;;13.51;100.00
12664;BME280;6396;58.490;15.528;2022-09-09T01:33:50;101267.97;;;13.45;100.00
12664;BME280;6396;58.490;15.528;2022-09-09T01:36:28;101274.22;;;13.44;100.00
12664;BME280;6396;58.490;15.528;2022-09-09T01:38:56;101065.97;;;12.01;100.00
12664;BME280;6396;58.490;15.528;2022-09-09T01:41:24;101307.88;;;13.42;100.00
12664;BME280;6396;58.490;15.528;2022-09-09T01:43:53;101281.53;;;13.36;100.00
12664;BME280;6396;58.490;15.528;2022-09-09T01:46:21;101162.09;;;12.72;100.00
12664;BME280;6396;58.490;15.528;2022-09-09T01:48:50;101294.75;;;13.38;100.00
12664;BME280;6396;58.490;15.528;2022-09-09T01:51:17;101270.03;;;13.36;100.00
12664;BME280;6396;58.490;15.528;2022-09-09T01:53:45;101280.59;;;13.37;100.00
12664;BME280;6396;58.490;15.528;2022-09-09T01:56:22;101266.53;;;13.34;100.00
12664;BME280;6396;58.490;15.528;2022-09-09T01:59:03;101179.53;;;12.82;100.00
12664;BME280;6396;58.490;15.528;2022-09-09T02:01:43;100965.97;;;11.44;100.00
12664;BME280;6396;58.490;15.528;2022-09-09T02:04:22;101123.94;;;12.47;100.00
12664;BME280;6396;58.490;15.528;2022-09-09T02:06:54;101266.34;;;13.40;100.00
12664;BME280;6396;58.490;15.528;2022-09-09T02:09:23;101063.69;;;12.21;100.00
12664;BME280;6396;58.490;15.528;2022-09-09T02:12:00;101152.84;;;12.55;100.00
12664;BME280;6396;58.490;15.528;2022-09-09T02:14:32;101255.78;;;13.38;100.00
12664;BME280;6396;58.490;15.528;2022-09-09T02:17:08;101196.69;;;13.00;100.00
12664;BME280;6396;58.490;15.528;2022-09-09T02:19:39;101011.63;;;11.87;100.00
12664;BME280;6396;58.490;15.528;2022-09-09T02:22:07;100978.78;;;11.59;100.00
12664;BME280;6396;58.490;15.528;2022-09-09T02:24:37;101244.69;;;13.57;100.00
12664;BME280;6396;58.490;15.528;2022-09-09T02:27:07;101212.84;;;13.26;100.00
12664;BME280;6396;58.490;15.528;2022-09-09T02:29:39;101242.75;;;13.62;100.00
12664;BME280;6396;58.490;15.528;2022-09-09T02:32:10;100905.13;;;11.44;100.00
12664;BME280;6396;58.490;15.528;2022-09-09T02:34:42;100818.34;;;11.25;100.00
12664;BME280;6396;58.490;15.528;2022-09-09T02:37:11;101211.66;;;13.36;100.00
12664;BME280;6396;58.490;15.528;2022-09-09T02:39:39;101239.84;;;13.71;100.00
12664;BME280;6396;58.490;15.528;2022-09-09T02:42:06;100802.13;;;10.70;100.00
12664;BME280;6396;58.490;15.528;2022-09-09T02:44:33;101246.81;;;13.75;100.00
12664;BME280;6396;58.490;15.528;2022-09-09T02:47:20;101157.41;;;13.17;100.00
12664;BME280;6396;58.490;15.528;2022-09-09T02:50:02;101259.06;;;13.80;100.00
12664;BME280;6396;58.490;15.528;2022-09-09T02:52:38;101157.16;;;13.24;100.00
12664;BME280;6396;58.490;15.528;2022-09-09T02:55:14;101153.31;;;13.36;100.00
12664;BME280;6396;58.490;15.528;2022-09-09T02:57:44;101190.81;;;13.53;100.00
12664;BME280;6396;58.490;15.528;2022-09-09T03:00:13;101150.88;;;13.28;100.00
12664;BME280;6396;58.490;15.528;2022-09-09T03:02:41;101219.72;;;13.93;100.00
12664;BME280;6396;58.490;15.528;2022-09-09T03:05:08;101113.41;;;13.10;100.00
12664;BME280;6396;58.490;15.528;2022-09-09T03:07:35;101247.13;;;13.93;100.00
12664;BME280;6396;58.490;15.528;2022-09-09T03:10:02;101248.84;;;13.96;100.00
12664;BME280;6396;58.490;15.528;2022-09-09T03:12:29;101210.69;;;13.98;100.00
12664;BME280;6396;58.490;15.528;2022-09-09T03:14:56;101242.50;;;14.00;100.00
12664;BME280;6396;58.490;15.528;2022-09-09T03:17:23;101156.78;;;13.67;100.00
12664;BME280;6396;58.490;15.528;2022-09-09T03:19:51;101215.06;;;14.01;100.00
12664;BME280;6396;58.490;15.528;2022-09-09T03:22:19;101119.41;;;13.16;100.00
12664;BME280;6396;58.490;15.528;2022-09-09T03:24:46;101137.50;;;13.62;100.00
12664;BME280;6396;58.490;15.528;2022-09-09T03:27:13;101039.47;;;12.67;100.00
12664;BME280;6396;58.490;15.528;2022-09-09T03:29:41;100893.59;;;12.13;100.00
12664;BME280;6396;58.490;15.528;2022-09-09T03:32:07;100569.41;;;10.17;100.00
12664;BME280;6396;58.490;15.528;2022-09-09T03:34:35;101241.50;;;14.04;100.00
12664;BME280;6396;58.490;15.528;2022-09-09T03:37:03;101153.50;;;13.59;100.00
12664;BME280;6396;58.490;15.528;2022-09-09T03:39:30;100881.81;;;11.93;100.00
12664;BME280;6396;58.490;15.528;2022-09-09T03:41:57;100907.06;;;12.37;100.00
12664;BME280;6396;58.490;15.528;2022-09-09T03:44:24;101219.50;;;14.00;100.00
12664;BME280;6396;58.490;15.528;2022-09-09T03:46:51;101156.78;;;13.67;100.00
12664;BME280;6396;58.490;15.528;2022-09-09T03:49:18;101184.13;;;13.98;100.00
12664;BME280;6396;58.490;15.528;2022-09-09T03:51:45;101160.41;;;13.65;100.00
12664;BME280;6396;58.490;15.528;2022-09-09T03:54:13;101180.59;;;13.99;100.00
12664;BME280;6396;58.490;15.528;2022-09-09T03:56:40;101001.88;;;12.85;100.00
12664;BME280;6396;58.490;15.528;2022-09-09T03:59:07;101150.72;;;13.64;100.00
12664;BME280;6396;58.490;15.528;2022-09-09T04:01:34;101177.59;;;13.81;100.00
12664;BME280;6396;58.490;15.528;2022-09-09T04:04:01;101216.88;;;13.99;100.00
12664;BME280;6396;58.490;15.528;2022-09-09T04:06:28;101134.88;;;13.61;100.00
12664;BME280;6396;58.490;15.528;2022-09-09T04:08:55;100912.16;;;12.43;100.00
12664;BME280;6396;58.490;15.528;2022-09-09T04:11:24;100905.97;;;12.44;100.00
12664;BME280;6396;58.490;15.528;2022-09-09T04:13:51;100735.03;;;11.12;100.00
12664;BME280;6396;58.490;15.528;2022-09-09T04:16:17;100921.09;;;12.38;100.00
12664;BME280;6396;58.490;15.528;2022-09-09T04:18:45;100929.81;;;12.44;100.00
12664;BME280;6396;58.490;15.528;2022-09-09T04:21:12;100985.34;;;12.76;100.00
12664;BME280;6396;58.490;15.528;2022-09-09T04:23:40;100725.53;;;11.04;100.00
12664;BME280;6396;58.490;15.528;2022-09-09T04:26:08;101175.44;;;13.93;100.00
12664;BME280;6396;58.490;15.528;2022-09-09T04:28:39;101198.47;;;13.93;100.00
12664;BME280;6396;58.490;15.528;2022-09-09T04:31:06;101172.75;;;13.95;100.00
12664;BME280;6396;58.490;15.528;2022-09-09T04:33:34;101178.06;;;13.95;100.00
12664;BME280;6396;58.490;15.528;2022-09-09T04:36:01;101214.34;;;13.94;100.00
12664;BME280;6396;58.490;15.528;2022-09-09T04:38:28;101188.66;;;13.95;100.00
12664;BME280;6396;58.490;15.528;2022-09-09T04:40:55;100988.56;;;12.87;100.00
12664;BME280;6396;58.490;15.528;2022-09-09T04:43:22;100801.19;;;11.75;100.00
12664;BME280;6396;58.490;15.528;2022-09-09T04:45:52;101056.16;;;13.32;100.00
12664;BME280;6396;58.490;15.528;2022-09-09T04:48:20;101131.13;;;13.68;100.00
12664;BME280;6396;58.490;15.528;2022-09-09T04:50:54;101196.53;;;13.99;100.00
12664;BME280;6396;58.490;15.528;2022-09-09T04:53:22;101113.16;;;13.48;100.00
12664;BME280;6396;58.490;15.528;2022-09-09T04:55:48;101107.13;;;13.71;100.00
12664;BME280;6396;58.490;15.528;2022-09-09T04:58:16;101167.97;;;14.06;100.00
12664;BME280;6396;58.490;15.528;2022-09-09T05:00:44;101138.03;;;13.73;100.00
12664;BME280;6396;58.490;15.528;2022-09-09T05:03:12;100910.13;;;12.52;100.00
12664;BME280;6396;58.490;15.528;2022-09-09T05:05:39;101164.25;;;14.11;100.00
12664;BME280;6396;58.490;15.528;2022-09-09T05:08:07;101029.50;;;13.36;100.00
12664;BME280;6396;58.490;15.528;2022-09-09T05:10:37;101015.66;;;13.27;100.00
12664;BME280;6396;58.490;15.528;2022-09-09T05:13:04;100702.31;;;11.47;100.00
12664;BME280;6396;58.490;15.528;2022-09-09T05:15:31;100823.06;;;12.11;100.00
12664;BME280;6396;58.490;15.528;2022-09-09T05:17:59;100572.72;;;10.57;100.00
12664;BME280;6396;58.490;15.528;2022-09-09T05:20:29;100990.94;;;12.96;100.00
12664;BME280;6396;58.490;15.528;2022-09-09T05:22:58;100877.94;;;12.35;100.00
12664;BME280;6396;58.490;15.528;2022-09-09T05:25:25;100771.09;;;11.78;100.00
12664;BME280;6396;58.490;15.528;2022-09-09T05:27:52;101085.56;;;13.54;100.00
12664;BME280;6396;58.490;15.528;2022-09-09T05:30:20;101168.00;;;14.33;100.00
12664;BME280;6396;58.490;15.528;2022-09-09T05:32:47;101108.41;;;13.87;100.00
12664;BME280;6396;58.490;15.528;2022-09-09T05:35:14;101121.97;;;13.78;100.00
12664;BME280;6396;58.490;15.528;2022-09-09T05:37:43;101169.78;;;14.33;100.00
12664;BME280;6396;58.490;15.528;2022-09-09T05:40:11;101167.03;;;14.36;100.00
12664;BME280;6396;58.490;15.528;2022-09-09T05:42:38;101141.50;;;13.75;100.00
12664;BME280;6396;58.490;15.528;2022-09-09T05:45:06;100753.88;;;11.94;100.00
12664;BME280;6396;58.490;15.528;2022-09-09T05:47:34;101214.69;;;14.40;100.00
12664;BME280;6396;58.490;15.528;2022-09-09T05:50:03;100900.22;;;12.86;100.00
12664;BME280;6396;58.490;15.528;2022-09-09T05:52:30;101109.31;;;13.86;100.00
12664;BME280;6396;58.490;15.528;2022-09-09T05:54:58;101191.66;;;14.41;100.00
12664;BME280;6396;58.490;15.528;2022-09-09T05:57:25;101142.31;;;14.05;100.00
12664;BME280;6396;58.490;15.528;2022-09-09T05:59:52;101105.63;;;14.17;100.00
12664;BME280;6396;58.490;15.528;2022-09-09T06:02:21;100879.00;;;12.59;100.00
12664;BME280;6396;58.490;15.528;2022-09-09T06:04:48;101014.22;;;13.44;100.00
12664;BME280;6396;58.490;15.528;2022-09-09T06:07:15;101218.84;;;14.49;100.00
12664;BME280;6396;58.490;15.528;2022-09-09T06:09:42;101159.47;;;14.50;100.00
12664;BME280;6396;58.490;15.528;2022-09-09T06:12:10;101164.50;;;14.57;100.00
12664;BME280;6396;58.490;15.528;2022-09-09T06:14:37;100994.72;;;13.45;100.00
12664;BME280;6396;58.490;15.528;2022-09-09T06:17:04;101050.81;;;13.89;100.00
12664;BME280;6396;58.490;15.528;2022-09-09T06:19:30;100904.50;;;13.19;100.00
12664;BME280;6396;58.490;15.528;2022-09-09T06:21:57;101178.72;;;14.83;100.00
12664;BME280;6396;58.490;15.528;2022-09-09T06:24:25;100716.81;;;12.23;100.00
12664;BME280;6396;58.490;15.528;2022-09-09T06:26:52;101194.75;;;15.06;100.00
12664;BME280;6396;58.490;15.528;2022-09-09T06:29:26;101154.16;;;15.24;100.00
12664;BME280;6396;58.490;15.528;2022-09-09T06:31:53;101198.06;;;15.61;100.00
12664;BME280;6396;58.490;15.528;2022-09-09T06:34:20;100669.31;;;13.21;100.00
12664;BME280;6396;58.490;15.528;2022-09-09T06:36:47;101182.28;;;16.02;100.00
12664;BME280;6396;58.490;15.528;2022-09-09T06:39:14;100946.03;;;15.17;100.00
12664;BME280;6396;58.490;15.528;2022-09-09T06:41:41;101034.91;;;16.63;100.00
12664;BME280;6396;58.490;15.528;2022-09-09T06:44:08;100987.44;;;17.08;100.00
12664;BME280;6396;58.490;15.528;2022-09-09T06:46:38;101156.28;;;18.96;100.00
12664;BME280;6396;58.490;15.528;2022-09-09T06:49:05;100933.50;;;18.09;100.00
12664;BME280;6396;58.490;15.528;2022-09-09T06:51:35;101138.13;;;19.99;99.62
12664;BME280;6396;58.490;15.528;2022-09-09T06:54:03;100978.19;;;19.37;96.04
12664;BME280;6396;58.490;15.528;2022-09-09T06:56:31;100911.16;;;19.39;89.14
12664;BME280;6396;58.490;15.528;2022-09-09T06:59:00;101137.34;;;20.73;81.72
12664;BME280;6396;58.490;15.528;2022-09-09T07:01:31;101030.59;;;20.19;76.63
12664;BME280;6396;58.490;15.528;2022-09-09T07:04:00;101189.63;;;21.41;77.71
12664;BME280;6396;58.490;15.528;2022-09-09T07:06:29;100839.78;;;19.38;74.41
12664;BME280;6396;58.490;15.528;2022-09-09T07:08:57;101156.09;;;21.61;73.27
12664;BME280;6396;58.490;15.528;2022-09-09T07:11:26;101018.66;;;20.96;63.70
12664;BME280;6396;58.490;15.528;2022-09-09T07:13:53;101166.31;;;21.84;69.09
12664;BME280;6396;58.490;15.528;2022-09-09T07:16:22;101174.81;;;21.62;64.64
12664;BME280;6396;58.490;15.528;2022-09-09T07:18:50;101145.63;;;21.98;64.46
12664;BME280;6396;58.490;15.528;2022-09-09T07:21:18;101176.66;;;21.76;61.85
12664;BME280;6396;58.490;15.528;2022-09-09T07:23:46;101094.94;;;21.64;65.21
12664;BME280;6396;58.490;15.528;2022-09-09T07:26:15;101161.34;;;21.78;61.00
12664;BME280;6396;58.490;15.528;2022-09-09T07:28:42;101174.03;;;20.59;71.24
12664;BME280;6396;58.490;15.528;2022-09-09T07:31:12;101156.16;;;19.49;77.20
12664;BME280;6396;58.490;15.528;2022-09-09T07:33:42;100966.31;;;17.22;87.88
12664;BME280;6396;58.490;15.528;2022-09-09T07:36:12;101042.66;;;17.26;99.19
12664;BME280;6396;58.490;15.528;2022-09-09T07:38:42;101193.25;;;17.61;100.00
12664;BME280;6396;58.490;15.528;2022-09-09T07:41:12;101162.56;;;17.51;100.00
12664;BME280;6396;58.490;15.528;2022-09-09T07:43:39;101173.81;;;17.37;100.00
12664;BME280;6396;58.490;15.528;2022-09-09T07:46:06;101179.66;;;17.07;100.00
12664;BME280;6396;58.490;15.528;2022-09-09T07:48:33;101130.53;;;16.50;100.00
12664;BME280;6396;58.490;15.528;2022-09-09T07:51:06;101159.63;;;16.77;100.00
12664;BME280;6396;58.490;15.528;2022-09-09T07:53:34;101040.47;;;15.95;100.00
12664;BME280;6396;58.490;15.528;2022-09-09T07:56:09;101191.03;;;16.70;100.00
12664;BME280;6396;58.490;15.528;2022-09-09T07:58:37;101202.41;;;16.53;100.00
12664;BME280;6396;58.490;15.528;2022-09-09T08:01:08;101126.16;;;16.49;100.00
12664;BME280;6396;58.490;15.528;2022-09-09T08:03:35;101175.34;;;17.63;100.00
12664;BME280;6396;58.490;15.528;2022-09-09T08:06:03;101079.91;;;18.21;100.00
12664;BME280;6396;58.490;15.528;2022-09-09T08:08:32;100516.50;;;15.44;96.91
12664;BME280;6396;58.490;15.528;2022-09-09T08:11:04;101035.94;;;19.10;81.02
12664;BME280;6396;58.490;15.528;2022-09-09T08:13:34;101152.34;;;20.17;83.42
12664;BME280;6396;58.490;15.528;2022-09-09T08:16:06;101138.50;;;20.40;75.81
12664;BME280;6396;58.490;15.528;2022-09-09T08:18:33;101158.31;;;20.96;77.14
12664;BME280;6396;58.490;15.528;2022-09-09T08:21:08;101177.56;;;21.04;66.02
12664;BME280;6396;58.490;15.528;2022-09-09T08:23:37;101085.56;;;20.57;69.75
12664;BME280;6396;58.490;15.528;2022-09-09T08:26:06;100848.94;;;19.18;67.84
12664;BME280;6396;58.490;15.528;2022-09-09T08:28:36;100808.56;;;18.91;66.88
12664;BME280;6396;58.490;15.528;2022-09-09T08:31:07;100711.91;;;18.82;65.93
12664;BME280;6396;58.490;15.528;2022-09-09T08:33:34;101075.69;;;21.44;67.73
12664;BME280;6396;58.490;15.528;2022-09-09T08:36:04;101143.25;;;21.80;68.25
12664;BME280;6396;58.490;15.528;2022-09-09T08:38:31;100915.97;;;20.51;68.71
12664;BME280;6396;58.490;15.528;2022-09-09T08:41:06;101053.16;;;21.32;64.78
12664;BME280;6396;58.490;15.528;2022-09-09T08:43:39;101058.13;;;21.38;63.16
12664;BME280;6396;58.490;15.528;2022-09-09T08:46:11;101146.34;;;21.88;64.29
12664;BME280;6396;58.490;15.528;2022-09-09T08:48:47;101133.66;;;21.90;62.50
12664;BME280;6396;58.490;15.528;2022-09-09T08:51:20;100798.28;;;19.88;64.60
12664;BME280;6396;58.490;15.528;2022-09-09T08:53:49;101033.56;;;21.16;58.75
12664;BME280;6396;58.490;15.528;2022-09-09T08:56:21;101131.44;;;21.82;63.40
12664;BME280;6396;58.490;15.528;2022-09-09T08:58:52;101106.66;;;21.91;60.12
12664;BME280;6396;58.490;15.528;2022-09-09T09:01:45;100894.50;;;20.37;58.27
12664;BME280;6396;58.490;15.528;2022-09-09T09:04:29;101003.22;;;20.86;61.36
12664;BME280;6396;58.490;15.528;2022-09-09T09:07:08;100903.72;;;20.47;62.99
12664;BME280;6396;58.490;15.528;2022-09-09T09:09:46;101091.31;;;21.51;61.47
12664;BME280;6396;58.490;15.528;2022-09-09T09:12:20;100940.31;;;20.34;62.12
12664;BME280;6396;58.490;15.528;2022-09-09T09:14:50;101153.50;;;21.73;61.36
12664;BME280;6396;58.490;15.528;2022-09-09T09:17:18;101119.75;;;21.55;62.61
12664;BME280;6396;58.490;15.528;2022-09-09T09:19:47;101076.91;;;21.10;64.40
12664;BME280;6396;58.490;15.528;2022-09-09T09:22:18;100979.41;;;20.38;63.27
12664;BME280;6396;58.490;15.528;2022-09-09T09:24:51;101126.81;;;21.00;62.68
12664;BME280;6396;58.490;15.528;2022-09-09T09:27:31;101051.41;;;20.59;66.73
12664;BME280;6396;58.490;15.528;2022-09-09T09:30:04;100764.91;;;18.91;68.70
12664;BME280;6396;58.490;15.528;2022-09-09T09:32:34;101034.59;;;20.42;69.93
12664;BME280;6396;58.490;15.528;2022-09-09T09:35:06;101043.16;;;20.48;68.66
12664;BME280;6396;58.490;15.528;2022-09-09T09:37:36;101131.75;;;20.92;73.13
12664;BME280;6396;58.490;15.528;2022-09-09T09:40:10;101102.28;;;20.76;72.21
12664;BME280;6396;58.490;15.528;2022-09-09T09:42:38;101129.66;;;20.38;75.79
12664;BME280;6396;58.490;15.528;2022-09-09T09:45:20;101112.13;;;20.17;78.37
12664;BME280;6396;58.490;15.528;2022-09-09T09:48:01;101108.03;;;19.94;82.03
12664;BME280;6396;58.490;15.528;2022-09-09T09:50:29;101118.06;;;19.75;83.29
12664;BME280;6396;58.490;15.528;2022-09-09T09:52:58;101106.88;;;19.51;88.56
12664;BME280;6396;58.490;15.528;2022-09-09T09:55:26;101109.22;;;19.42;88.57
12664;BME280;6396;58.490;15.528;2022-09-09T09:58:01;100955.56;;;18.46;93.35
12664;BME280;6396;58.490;15.528;2022-09-09T10:00:30;101137.13;;;19.21;89.13
12664;BME280;6396;58.490;15.528;2022-09-09T10:02:59;100901.25;;;17.60;88.91
12664;BME280;6396;58.490;15.528;2022-09-09T10:05:27;101109.16;;;19.09;91.31
12664;BME280;6396;58.490;15.528;2022-09-09T10:08:02;101105.00;;;19.04;98.50
12664;BME280;6396;58.490;15.528;2022-09-09T10:11:02;100960.72;;;17.64;100.00
12664;BME280;6396;58.490;15.528;2022-09-09T10:13:37;101038.47;;;18.63;100.00
12664;BME280;6396;58.490;15.528;2022-09-09T10:16:21;100939.59;;;17.94;100.00
12664;BME280;6396;58.490;15.528;2022-09-09T10:18:58;101048.59;;;18.40;100.00
12664;BME280;6396;58.490;15.528;2022-09-09T10:21:41;101084.13;;;18.43;100.00
12664;BME280;6396;58.490;15.528;2022-09-09T10:27:13;101132.03;;;18.99;100.00
12664;BME280;6396;58.490;15.528;2022-09-09T10:30:00;101084.03;;;18.62;100.00
12664;BME280;6396;58.490;15.528;2022-09-09T10:32:36;101104.31;;;18.83;96.55
12664;BME280;6396;58.490;15.528;2022-09-09T10:35:10;101064.50;;;18.60;100.00
12664;BME280;6396;58.490;15.528;2022-09-09T10:37:47;101083.78;;;18.49;100.00
12664;BME280;6396;58.490;15.528;2022-09-09T10:40:30;101011.84;;;18.09;100.00
12664;BME280;6396;58.490;15.528;2022-09-09T10:43:03;101101.41;;;18.53;100.00
12664;BME280;6396;58.490;15.528;2022-09-09T10:45:35;100824.94;;;16.66;100.00
12664;BME280;6396;58.490;15.528;2022-09-09T10:48:25;101144.47;;;18.66;100.00
12664;BME280;6396;58.490;15.528;2022-09-09T10:51:03;100998.81;;;18.03;100.00
12664;BME280;6396;58.490;15.528;2022-09-09T10:53:46;100911.47;;;17.52;100.00
12664;BME280;6396;58.490;15.528;2022-09-09T10:56:18;101025.22;;;18.09;100.00
12664;BME280;6396;58.490;15.528;2022-09-09T10:58:48;100894.28;;;17.39;100.00
12664;BME280;6396;58.490;15.528;2022-09-09T11:01:21;101110.47;;;18.68;100.00
12664;BME280;6396;58.490;15.528;2022-09-09T11:03:54;101058.34;;;18.24;100.00
12664;BME280;6396;58.490;15.528;2022-09-09T11:06:25;101133.97;;;18.61;100.00
12664;BME280;6396;58.490;15.528;2022-09-09T11:08:57;101107.19;;;18.63;100.00
12664;BME280;6396;58.490;15.528;2022-09-09T11:11:29;101018.16;;;17.91;100.00
12664;BME280;6396;58.490;15.528;2022-09-09T11:14:02;101035.09;;;18.43;100.00
12664;BME280;6396;58.490;15.528;2022-09-09T11:16:35;101053.44;;;18.50;100.00
12664;BME280;6396;58.490;15.528;2022-09-09T11:19:16;100738.28;;;16.58;100.00
12664;BME280;6396;58.490;15.528;2022-09-09T11:21:47;101116.78;;;18.84;100.00
12664;BME280;6396;58.490;15.528;2022-09-09T11:24:21;101107.13;;;18.97;100.00
12664;BME280;6396;58.490;15.528;2022-09-09T11:26:53;101098.41;;;18.93;100.00
12664;BME280;6396;58.490;15.528;2022-09-09T11:32:27;101096.25;;;19.00;100.00
12664;BME280;6396;58.490;15.528;2022-09-09T11:35:26;100960.28;;;18.24;100.00
12664;BME280;6396;58.490;15.528;2022-09-09T11:38:15;101121.47;;;18.96;100.00
12664;BME280;6396;58.490;15.528;2022-09-09T11:40:43;101024.22;;;18.46;100.00
12664;BME280;6396;58.490;15.528;2022-09-09T11:43:13;100932.28;;;17.63;100.00
12664;BME280;6396;58.490;15.528;2022-09-09T11:45:43;100954.47;;;17.82;100.00
12664;BME280;6396;58.490;15.528;2022-09-09T11:48:23;101010.34;;;18.04;100.00
12664;BME280;6396;58.490;15.528;2022-09-09T11:51:05;101091.06;;;18.29;100.00
12664;BME280;6396;58.490;15.528;2022-09-09T11:53:33;101080.88;;;18.01;100.00
12664;BME280;6396;58.490;15.528;2022-09-09T11:56:03;100896.16;;;16.83;100.00
12664;BME280;6396;58.490;15.528;2022-09-09T11:58:36;100996.88;;;17.34;100.00
12664;BME280;6396;58.490;15.528;2022-09-09T12:01:25;101102.78;;;17.91;100.00
12664;BME280;6396;58.490;15.528;2022-09-09T12:06:44;101126.03;;;17.89;100.00
12664;BME280;6396;58.490;15.528;2022-09-09T12:09:22;100935.66;;;16.75;100.00
12664;BME280;6396;58.490;15.528;2022-09-09T12:11:50;100874.66;;;16.29;100.00
12664;BME280;6396;58.490;15.528;2022-09-09T12:14:21;101092.53;;;17.81;100.00
12664;BME280;6396;58.490;15.528;2022-09-09T12:16:49;101087.91;;;17.85;100.00
12664;BME280;6396;58.490;15.528;2022-09-09T12:19:18;101094.28;;;17.83;100.00
12664;BME280;6396;58.490;15.528;2022-09-09T12:21:54;101082.59;;;17.66;100.00
12664;BME280;6396;58.490;15.528;2022-09-09T12:24:32;100914.81;;;16.83;100.00
12664;BME280;6396;58.490;15.528;2022-09-09T12:27:06;101079.19;;;17.63;100.00
12664;BME280;6396;58.490;15.528;2022-09-09T12:29:41;100955.63;;;16.66;100.00
12664;BME280;6396;58.490;15.528;2022-09-09T12:32:13;101113.41;;;17.73;100.00
12664;BME280;6396;58.490;15.528;2022-09-09T12:34:44;101052.41;;;17.46;100.00
12664;BME280;6396;58.490;15.528;2022-09-09T12:37:27;101081.56;;;17.69;100.00
12664;BME280;6396;58.490;15.528;2022-09-09T12:39:57;101087.56;;;17.55;100.00
12664;BME280;6396;58.490;15.528;2022-09-09T12:42:25;101063.75;;;17.51;100.00
12664;BME280;6396;58.490;15.528;2022-09-09T12:44:56;100945.47;;;16.93;100.00
12664;BME280;6396;58.490;15.528;2022-09-09T12:47:31;100898.81;;;16.64;100.00
12664;BME280;6396;58.490;15.528;2022-09-09T12:50:01;101093.03;;;17.71;100.00
12664;BME280;6396;58.490;15.528;2022-09-09T12:52:31;100795.28;;;15.98;100.00
12664;BME280;6396;58.490;15.528;2022-09-09T12:55:01;100903.38;;;16.42;100.00
12664;BME280;6396;58.490;15.528;2022-09-09T12:57:33;101099.75;;;17.79;100.00
12664;BME280;6396;58.490;15.528;2022-09-09T13:00:11;100982.25;;;17.24;100.00
12664;BME280;6396;58.490;15.528;2022-09-09T13:02:46;101092.25;;;17.69;100.00
12664;BME280;6396;58.490;15.528;2022-09-09T13:05:16;101073.34;;;17.73;100.00
12664;BME280;6396;58.490;15.528;2022-09-09T13:07:45;100884.56;;;16.45;100.00
12664;BME280;6396;58.490;15.528;2022-09-09T13:10:13;100878.38;;;16.65;100.00
12664;BME280;6396;58.490;15.528;2022-09-09T13:12:41;100982.97;;;17.27;100.00
12664;BME280;6396;58.490;15.528;2022-09-09T13:15:19;101075.78;;;17.97;100.00
12664;BME280;6396;58.490;15.528;2022-09-09T13:17:51;101020.19;;;17.67;100.00
12664;BME280;6396;58.490;15.528;2022-09-09T13:20:19;101023.59;;;17.71;100.00